createdAt,value
2023-04-18T00:00:40.053Z,0
2023-04-18T00:01:40.084Z,0
2023-04-18T00:02:40.261Z,0
2023-04-18T00:04:40.123Z,0
2023-04-18T00:05:40.050Z,0
2023-04-18T00:06:40.043Z,0
2023-04-18T00:07:40.045Z,0
2023-04-18T00:08:40.048Z,0
2023-04-18T00:09:40.056Z,0
2023-04-18T00:10:40.043Z,0
2023-04-18T00:11:40.053Z,0
2023-04-18T00:12:40.043Z,0
2023-04-18T00:13:40.049Z,0
2023-04-18T00:14:40.056Z,0
2023-04-18T00:16:42.358Z,0
2023-04-18T00:17:45.115Z,0
2023-04-18T00:19:40.074Z,0
2023-04-18T00:20:40.048Z,0
2023-04-18T00:21:40.042Z,0
2023-04-18T00:22:40.040Z,0
2023-04-18T00:23:40.043Z,0
2023-04-18T00:24:40.054Z,0
2023-04-18T00:25:40.066Z,0
2023-04-18T00:27:40.044Z,0
2023-04-18T00:28:40.033Z,0
2023-04-18T00:29:40.039Z,0
2023-04-18T00:30:40.128Z,0
2023-04-18T00:32:40.068Z,0
2023-04-18T00:33:40.048Z,0
2023-04-18T00:34:40.039Z,0
2023-04-18T00:35:40.063Z,0
2023-04-18T00:37:42.331Z,0
2023-04-18T00:38:45.175Z,0
2023-04-18T00:40:40.055Z,0
2023-04-18T00:41:40.063Z,0
2023-04-18T00:42:40.035Z,0
2023-04-18T00:43:40.052Z,0
2023-04-18T00:44:40.145Z,0
2023-04-18T00:46:40.066Z,0
2023-04-18T00:47:40.073Z,0
2023-04-18T00:49:40.051Z,0
2023-04-18T00:51:40.035Z,0
2023-04-18T00:52:40.062Z,0
2023-04-18T00:54:40.063Z,0
2023-04-18T00:56:40.057Z,0
2023-04-18T00:58:42.422Z,0
2023-04-18T00:59:44.812Z,0
2023-04-18T01:01:40.107Z,0
2023-04-18T01:02:40.176Z,0
2023-04-18T01:03:40.114Z,0
2023-04-18T01:04:40.088Z,0
2023-04-18T01:05:40.214Z,0
2023-04-18T01:07:40.034Z,0
2023-04-18T01:08:40.034Z,0
2023-04-18T01:09:40.057Z,0
2023-04-18T01:11:40.041Z,0
2023-04-18T01:12:40.034Z,0
2023-04-18T01:13:40.044Z,0
2023-04-18T01:14:40.053Z,0
2023-04-18T01:15:40.097Z,0
2023-04-18T01:17:40.070Z,0
2023-04-18T01:18:40.045Z,0
2023-04-18T01:19:42.462Z,0
2023-04-18T01:20:45.383Z,0
2023-04-18T01:22:40.040Z,0
2023-04-18T01:23:40.038Z,0
2023-04-18T01:24:40.053Z,0
2023-04-18T01:26:40.231Z,0
2023-04-18T01:28:40.041Z,0
2023-04-18T01:29:40.074Z,0
2023-04-18T01:31:40.128Z,0
2023-04-18T01:32:40.120Z,0
2023-04-18T01:34:40.062Z,0
2023-04-18T01:36:40.034Z,0
2023-04-18T01:37:40.037Z,0
2023-04-18T01:38:40.042Z,0
2023-04-18T01:39:40.080Z,0
2023-04-18T01:40:42.482Z,0
2023-04-18T01:41:45.422Z,0
2023-04-18T01:43:40.042Z,0
2023-04-18T01:44:40.042Z,0
2023-04-18T01:46:40.084Z,0
2023-04-18T01:47:40.099Z,0
2023-04-18T01:48:40.061Z,0
2023-04-18T01:49:40.071Z,0
2023-04-18T01:51:40.031Z,0
2023-04-18T01:52:40.044Z,0
2023-04-18T01:53:40.044Z,0
2023-04-18T01:54:40.058Z,0
2023-04-18T01:55:40.056Z,0
2023-04-18T01:57:40.046Z,0
2023-04-18T01:59:40.040Z,0
2023-04-18T02:00:40.081Z,0
2023-04-18T02:01:40.068Z,0
2023-04-18T02:02:43.270Z,0
2023-04-18T02:03:46.024Z,0
2023-04-18T02:05:40.048Z,0
2023-04-18T02:06:40.039Z,0
2023-04-18T02:08:40.052Z,0
2023-04-18T02:10:40.034Z,0
2023-04-18T02:11:40.056Z,0
2023-04-18T02:12:40.046Z,0
2023-04-18T02:13:40.073Z,0
2023-04-18T02:14:40.044Z,0
2023-04-18T02:15:40.056Z,0
2023-04-18T02:16:40.065Z,0
2023-04-18T02:17:40.074Z,0
2023-04-18T02:18:40.060Z,0
2023-04-18T02:19:40.044Z,0
2023-04-18T02:20:40.055Z,0
2023-04-18T02:21:40.050Z,0
2023-04-18T02:22:40.165Z,0
2023-04-18T02:23:42.612Z,0
2023-04-18T02:24:46.019Z,0
2023-04-18T02:26:40.040Z,0
2023-04-18T02:27:40.027Z,0
2023-04-18T02:28:40.058Z,0
2023-04-18T02:29:40.055Z,0
2023-04-18T02:30:40.034Z,0
2023-04-18T02:31:40.082Z,0
2023-04-18T02:32:40.080Z,0
2023-04-18T02:33:40.041Z,0
2023-04-18T02:34:40.061Z,0
2023-04-18T02:36:40.047Z,0
2023-04-18T02:37:40.047Z,0
2023-04-18T02:39:40.062Z,0
2023-04-18T02:41:40.036Z,0
2023-04-18T02:43:40.341Z,0
2023-04-18T02:44:42.668Z,0
2023-04-18T02:45:46.083Z,0
2023-04-18T02:47:47.285Z,0
2023-04-18T02:48:40.045Z,0
2023-04-18T02:49:40.062Z,0
2023-04-18T02:51:40.039Z,0
2023-04-18T02:52:40.055Z,0
2023-04-18T02:53:40.041Z,0
2023-04-18T02:54:40.059Z,0
2023-04-18T02:56:40.106Z,0
2023-04-18T02:57:40.037Z,0
2023-04-18T02:58:40.035Z,0
2023-04-18T02:59:40.060Z,0
2023-04-18T03:01:40.054Z,0
2023-04-18T03:02:40.131Z,0
2023-04-18T03:03:40.044Z,0
2023-04-18T03:04:40.432Z,0
2023-04-18T03:05:42.715Z,0
2023-04-18T03:06:46.146Z,0
2023-04-18T03:08:40.033Z,0
2023-04-18T03:09:40.066Z,0
2023-04-18T03:11:40.043Z,0
2023-04-18T03:13:40.055Z,0
2023-04-18T03:14:40.065Z,0
2023-04-18T03:16:40.044Z,0
2023-04-18T03:17:40.068Z,0
2023-04-18T03:18:40.046Z,0
2023-04-18T03:19:40.038Z,0
2023-04-18T03:20:40.046Z,0
2023-04-18T03:21:40.037Z,0
2023-04-18T03:22:40.031Z,0
2023-04-18T03:23:40.034Z,0
2023-04-18T03:24:40.034Z,0
2023-04-18T03:25:40.427Z,0
2023-04-18T03:26:42.927Z,0
2023-04-18T03:27:46.224Z,0
2023-04-18T03:29:40.086Z,0
2023-04-18T03:30:40.036Z,0
2023-04-18T03:31:40.105Z,0
2023-04-18T03:32:40.097Z,0
2023-04-18T03:33:40.033Z,0
2023-04-18T03:34:40.040Z,0
2023-04-18T03:35:40.042Z,0
2023-04-18T03:36:40.063Z,0
2023-04-18T03:38:40.046Z,0
2023-04-18T03:39:40.039Z,0
2023-04-18T03:40:40.041Z,0
2023-04-18T03:41:40.053Z,0
2023-04-18T03:42:40.037Z,0
2023-04-18T03:43:40.033Z,0
2023-04-18T03:44:40.038Z,0.23
2023-04-18T03:46:40.109Z,0.23
2023-04-18T03:47:42.939Z,0.23
2023-04-18T03:48:46.378Z,0.46
2023-04-18T03:50:40.041Z,0.46
2023-04-18T03:51:40.029Z,0.69
2023-04-18T03:52:40.037Z,0.69
2023-04-18T03:54:40.030Z,1.15
2023-04-18T03:55:40.036Z,1.38
2023-04-18T03:57:41.258Z,1.84
2023-04-18T03:59:40.042Z,2.76
2023-04-18T04:00:40.040Z,3.22
2023-04-18T04:01:40.068Z,3.91
2023-04-18T04:02:40.203Z,4.6
2023-04-18T04:03:40.252Z,5.52
2023-04-18T04:04:40.053Z,6.44
2023-04-18T04:06:40.048Z,8.51
2023-04-18T04:08:42.147Z,2.76
2023-04-18T04:09:44.977Z,11.67
2023-04-18T04:11:40.051Z,15.83
2023-04-18T04:12:40.042Z,19.17
2023-04-18T04:13:40.039Z,22.5
2023-04-18T04:14:40.043Z,25.83
2023-04-18T04:15:40.061Z,30
2023-04-18T04:17:40.067Z,38.33
2023-04-18T04:18:40.046Z,43.33
2023-04-18T04:19:40.065Z,49.17
2023-04-18T04:21:40.034Z,61.67
2023-04-18T04:22:40.046Z,68.33
2023-04-18T04:23:40.036Z,75
2023-04-18T04:24:40.080Z,84.17
2023-04-18T04:26:40.045Z,101.67
2023-04-18T04:27:40.048Z,108.33
2023-04-18T04:28:40.790Z,115
2023-04-18T04:29:43.323Z,121.67
2023-04-18T04:30:46.690Z,133.33
2023-04-18T04:32:40.071Z,158.33
2023-04-18T04:33:40.042Z,165.83
2023-04-18T04:34:40.036Z,170
2023-04-18T04:35:40.035Z,174.17
2023-04-18T04:36:40.036Z,180
2023-04-18T04:37:40.039Z,195
2023-04-18T04:38:40.026Z,205.83
2023-04-18T04:39:40.157Z,214.17
2023-04-18T04:41:40.160Z,242.5
2023-04-18T04:43:40.039Z,258.33
2023-04-18T04:44:40.075Z,262.5
2023-04-18T04:45:40.074Z,282.5
2023-04-18T04:46:40.054Z,292.5
2023-04-18T04:48:40.030Z,308.33
2023-04-18T04:49:40.044Z,329.17
2023-04-18T04:50:40.916Z,338.33
2023-04-18T04:51:44.157Z,347.5
2023-04-18T04:52:46.866Z,376.67
2023-04-18T04:54:40.067Z,450
2023-04-18T04:55:40.052Z,472.5
2023-04-18T04:56:40.045Z,475
2023-04-18T04:57:40.039Z,493.33
2023-04-18T04:59:40.061Z,470.83
2023-04-18T05:01:40.095Z,371.67
2023-04-18T05:02:40.153Z,340.83
2023-04-18T05:04:40.275Z,401.67
2023-04-18T05:06:40.338Z,510
2023-04-18T05:07:40.032Z,542.5
2023-04-18T05:08:40.062Z,572.5
2023-04-18T05:10:40.030Z,592.5
2023-04-18T05:11:41.103Z,618.33
2023-04-18T05:12:43.821Z,670
2023-04-18T05:13:46.532Z,722.5
2023-04-18T05:15:40.052Z,683.33
2023-04-18T05:17:40.059Z,710.83
2023-04-18T05:18:40.032Z,782.5
2023-04-18T05:19:40.043Z,845
2023-04-18T05:20:40.058Z,908.33
2023-04-18T05:22:40.029Z,949.17
2023-04-18T05:23:40.056Z,1002.5
2023-04-18T05:25:40.055Z,1086.67
2023-04-18T05:27:40.034Z,1179.17
2023-04-18T05:28:40.030Z,1263.33
2023-04-18T05:29:40.034Z,1319.17
2023-04-18T05:30:40.065Z,1404.17
2023-04-18T05:31:40.044Z,1536.67
2023-04-18T05:32:41.220Z,1680
2023-04-18T05:33:44.693Z,1710.83
2023-04-18T05:34:47.161Z,1370.83
2023-04-18T05:35:40.041Z,1399.17
2023-04-18T05:36:40.057Z,1695
2023-04-18T05:38:40.052Z,1607.5
2023-04-18T05:39:40.050Z,1568.33
2023-04-18T05:40:40.055Z,1601.67
2023-04-18T05:42:40.043Z,1591.67
2023-04-18T05:43:40.196Z,1461.67
2023-04-18T05:44:40.050Z,1375
2023-04-18T05:45:40.127Z,1546.67
2023-04-18T05:47:40.099Z,1536.67
2023-04-18T05:48:40.034Z,1714.17
2023-04-18T05:49:40.051Z,1739.17
2023-04-18T05:50:40.150Z,1797.5
2023-04-18T05:52:40.052Z,1920
2023-04-18T05:53:41.338Z,1850
2023-04-18T05:54:44.489Z,1724.17
2023-04-18T05:55:47.238Z,1595
2023-04-18T05:57:40.164Z,1440
2023-04-18T05:59:40.057Z,1596.67
2023-04-18T06:00:40.232Z,1651.67
2023-04-18T06:02:40.239Z,1501.67
2023-04-18T06:03:40.226Z,1775.83
2023-04-18T06:04:40.306Z,1762.5
2023-04-18T06:06:40.048Z,1762.5
2023-04-18T06:07:40.080Z,1687.5
2023-04-18T06:09:40.047Z,1629.17
2023-04-18T06:10:40.327Z,1563.33
2023-04-18T06:12:40.058Z,1639.17
2023-04-18T06:13:40.043Z,1705
2023-04-18T06:14:41.494Z,1899.17
2023-04-18T06:15:44.676Z,2263.33
2023-04-18T06:16:47.332Z,2374.17
2023-04-18T06:18:40.216Z,2189.17
2023-04-18T06:20:40.120Z,2233.33
2023-04-18T06:22:40.071Z,2065.83
2023-04-18T06:23:40.034Z,2618.33
2023-04-18T06:24:40.094Z,3257.5
2023-04-18T06:25:40.186Z,3220.83
2023-04-18T06:27:40.060Z,3168.33
2023-04-18T06:28:40.050Z,2869.17
2023-04-18T06:30:40.454Z,2699.17
2023-04-18T06:32:40.064Z,3103.33
2023-04-18T06:33:40.050Z,3428.33
2023-04-18T06:34:40.042Z,3227.5
2023-04-18T06:35:41.553Z,3335
2023-04-18T06:36:44.624Z,3360.83
2023-04-18T06:37:47.431Z,3200
2023-04-18T06:39:40.202Z,3189.17
2023-04-18T06:41:40.044Z,2839.17
2023-04-18T06:42:40.042Z,2350.83
2023-04-18T06:43:46.553Z,2640.83
2023-04-18T06:44:40.078Z,3285
2023-04-18T06:45:40.063Z,3283.33
2023-04-18T06:46:40.037Z,3453.33
2023-04-18T06:47:40.093Z,3642.5
2023-04-18T06:48:40.034Z,3422.5
2023-04-18T06:49:40.222Z,3139.17
2023-04-18T06:51:40.045Z,3720.83
2023-04-18T06:52:40.038Z,3415
2023-04-18T06:53:40.042Z,3478.33
2023-04-18T06:54:40.047Z,3276.67
2023-04-18T06:55:40.047Z,3010.83
2023-04-18T06:56:41.625Z,3217.5
2023-04-18T06:57:44.704Z,3565
2023-04-18T06:58:47.035Z,3840
2023-04-18T07:00:40.065Z,3687.5
2023-04-18T07:02:40.188Z,3187.5
2023-04-18T07:03:40.156Z,3288.33
2023-04-18T07:04:40.165Z,3458.33
2023-04-18T07:05:40.056Z,3411.67
2023-04-18T07:06:40.036Z,3123.33
2023-04-18T07:07:40.039Z,3276.67
2023-04-18T07:08:40.050Z,3994.17
2023-04-18T07:09:40.060Z,3775.83
2023-04-18T07:10:40.174Z,3660
2023-04-18T07:12:40.061Z,3802.5
2023-04-18T07:13:40.054Z,3505.83
2023-04-18T07:14:40.048Z,3067.5
2023-04-18T07:15:40.043Z,2663.33
2023-04-18T07:16:40.043Z,2889.17
2023-04-18T07:17:41.699Z,2831.67
2023-04-18T07:18:44.760Z,3075
2023-04-18T07:19:47.603Z,2750.83
2023-04-18T07:21:40.043Z,3504.17
2023-04-18T07:22:40.041Z,3344.17
2023-04-18T07:23:40.053Z,4243.33
2023-04-18T07:25:40.071Z,4410
2023-04-18T07:26:40.054Z,4321.67
2023-04-18T07:27:40.051Z,4706.67
2023-04-18T07:28:40.072Z,4551.67
2023-04-18T07:30:40.067Z,4758.33
2023-04-18T07:31:40.044Z,5613.33
2023-04-18T07:32:40.050Z,6294.17
2023-04-18T07:33:40.054Z,5591.67
2023-04-18T07:34:40.044Z,4957.5
2023-04-18T07:35:40.051Z,5394.17
2023-04-18T07:36:40.047Z,5262.5
2023-04-18T07:37:40.046Z,4765
2023-04-18T07:38:41.829Z,5050.83
2023-04-18T07:39:44.825Z,5603.33
2023-04-18T07:40:47.068Z,4634.17
2023-04-18T07:42:40.040Z,3919.17
2023-04-18T07:43:40.030Z,4242.5
2023-04-18T07:44:40.076Z,3905.83
2023-04-18T07:46:40.126Z,2991.67
2023-04-18T07:47:40.088Z,3227.5
2023-04-18T07:48:40.041Z,3430.83
2023-04-18T07:50:40.036Z,3454.17
2023-04-18T07:51:40.035Z,3554.17
2023-04-18T07:52:40.058Z,3290
2023-04-18T07:53:40.051Z,3139.17
2023-04-18T07:54:40.047Z,3215.83
2023-04-18T07:55:40.037Z,3326.67
2023-04-18T07:56:40.042Z,3482.5
2023-04-18T07:57:40.045Z,3804.17
2023-04-18T07:58:40.050Z,3658.33
2023-04-18T07:59:40.046Z,3840
2023-04-18T08:00:42.061Z,3855
2023-04-18T08:01:44.933Z,3875
2023-04-18T08:03:40.139Z,3805.83
2023-04-18T08:04:40.134Z,4232.5
2023-04-18T08:05:40.181Z,4094.17
2023-04-18T08:06:40.041Z,4235.83
2023-04-18T08:07:40.065Z,4265.83
2023-04-18T08:08:40.083Z,4369.17
2023-04-18T08:09:40.031Z,4120.83
2023-04-18T08:10:40.057Z,4731.67
2023-04-18T08:11:40.038Z,5028.33
2023-04-18T08:12:40.053Z,5988.33
2023-04-18T08:13:40.068Z,5563.33
2023-04-18T08:15:40.046Z,5415
2023-04-18T08:16:40.120Z,5308.33
2023-04-18T08:17:40.071Z,5116.67
2023-04-18T08:18:40.064Z,5649.17
2023-04-18T08:20:40.050Z,5270.83
2023-04-18T08:21:42.294Z,6329.17
2023-04-18T08:23:01.895Z,6157.5
2023-04-18T08:24:40.140Z,6789.17
2023-04-18T08:25:40.054Z,7027.5
2023-04-18T08:26:40.049Z,7291.67
2023-04-18T08:27:40.037Z,7941.67
2023-04-18T08:28:40.063Z,7042.5
2023-04-18T08:30:40.041Z,8836.67
2023-04-18T08:31:40.071Z,9740
2023-04-18T08:32:40.102Z,9476.67
2023-04-18T08:34:40.041Z,9243.33
2023-04-18T08:35:40.052Z,8151.67
2023-04-18T08:36:40.059Z,9711.67
2023-04-18T08:38:40.058Z,10182.5
2023-04-18T08:39:40.064Z,9509.17
2023-04-18T08:40:40.095Z,9425
2023-04-18T08:42:42.242Z,12680.83
2023-04-18T08:43:45.160Z,10337.5
2023-04-18T08:45:40.089Z,12669.17
2023-04-18T08:46:40.100Z,13712.5
2023-04-18T08:48:40.166Z,11925
2023-04-18T08:50:40.038Z,12318.33
2023-04-18T08:51:40.052Z,13905
2023-04-18T08:52:40.051Z,18221.67
2023-04-18T08:53:40.164Z,14321.67
2023-04-18T08:55:40.129Z,11205.83
2023-04-18T08:56:40.179Z,11493.33
2023-04-18T08:57:40.186Z,11896.67
2023-04-18T08:58:40.051Z,14086.67
2023-04-18T08:59:40.066Z,14314.17
2023-04-18T09:00:40.041Z,12893.33
2023-04-18T09:01:40.067Z,12478.33
2023-04-18T09:02:40.216Z,17532.5
2023-04-18T09:03:42.453Z,16339.17
2023-04-18T09:04:45.250Z,16779.17
2023-04-18T09:06:40.043Z,19225.83
2023-04-18T09:07:40.040Z,15719.17
2023-04-18T09:08:40.284Z,16356.67
2023-04-18T09:10:40.183Z,11217.5
2023-04-18T09:12:40.171Z,11859.17
2023-04-18T09:13:40.210Z,13473.33
2023-04-18T09:15:40.280Z,12639.17
2023-04-18T09:17:40.189Z,12475
2023-04-18T09:18:40.235Z,10085.83
2023-04-18T09:20:40.049Z,10301.67
2023-04-18T09:21:40.068Z,10953.33
2023-04-18T09:22:40.245Z,10168.33
2023-04-18T09:24:41.945Z,11603.33
2023-04-18T09:25:45.651Z,10782.5
2023-04-18T09:27:40.345Z,9596.67
2023-04-18T09:28:40.044Z,11110
2023-04-18T09:29:40.043Z,12298.33
2023-04-18T09:30:40.168Z,11982.5
2023-04-18T09:31:40.255Z,10642.5
2023-04-18T09:32:40.330Z,12195
2023-04-18T09:34:40.039Z,15915
2023-04-18T09:35:40.054Z,15224.17
2023-04-18T09:36:40.061Z,14649.17
2023-04-18T09:38:40.062Z,16358.33
2023-04-18T09:39:40.049Z,18118.33
2023-04-18T09:40:40.056Z,16898.33
2023-04-18T09:41:40.485Z,17632.5
2023-04-18T09:43:40.047Z,15293.33
2023-04-18T09:44:40.056Z,15260.83
2023-04-18T09:45:42.167Z,13783.33
2023-04-18T09:46:47.026Z,12421.67
2023-04-18T09:47:40.086Z,14710
2023-04-18T09:48:40.041Z,16204.17
2023-04-18T09:49:40.472Z,14948.33
2023-04-18T09:51:40.342Z,15110
2023-04-18T09:52:40.613Z,14145
2023-04-18T09:54:40.393Z,14557.5
2023-04-18T09:56:40.347Z,11340
2023-04-18T09:58:40.057Z,13286.67
2023-04-18T10:00:40.079Z,14032.5
2023-04-18T10:01:40.345Z,14128.33
2023-04-18T10:03:40.100Z,14384.17
2023-04-18T10:04:40.434Z,14281.67
2023-04-18T10:06:42.657Z,16832.5
2023-04-18T10:07:45.442Z,15887.5
2023-04-18T10:09:40.034Z,15120
2023-04-18T10:10:40.051Z,14008.33
2023-04-18T10:11:40.310Z,15061.67
2023-04-18T10:13:40.040Z,14265.83
2023-04-18T10:15:41.199Z,12640.83
2023-04-18T10:16:40.128Z,13079.17
2023-04-18T10:17:42.749Z,12960.83
2023-04-18T10:18:40.045Z,12845.83
2023-04-18T10:19:40.049Z,14370
2023-04-18T10:20:40.343Z,15033.33
2023-04-18T10:22:40.042Z,13069.17
2023-04-18T10:23:40.104Z,12514.17
2023-04-18T10:25:40.052Z,14278.33
2023-04-18T10:26:40.048Z,14189.17
2023-04-18T10:27:42.953Z,13500
2023-04-18T10:28:45.968Z,13095
2023-04-18T10:30:40.046Z,13515.83
2023-04-18T10:31:40.069Z,13489.17
2023-04-18T10:32:40.063Z,14007.5
2023-04-18T10:33:42.345Z,13655
2023-04-18T10:35:41.373Z,14910.83
2023-04-18T10:37:40.045Z,16551.67
2023-04-18T10:38:40.089Z,18972.5
2023-04-18T10:40:40.053Z,20970
2023-04-18T10:41:40.050Z,23082.5
2023-04-18T10:42:40.049Z,19125
2023-04-18T10:43:40.054Z,18160
2023-04-18T10:45:40.223Z,15336.67
2023-04-18T10:47:40.262Z,18265.83
2023-04-18T10:48:40.131Z,18692.5
2023-04-18T10:49:42.900Z,18193.33
2023-04-18T10:50:45.716Z,18926.67
2023-04-18T10:52:40.059Z,20606.67
2023-04-18T10:53:40.047Z,17777.5
2023-04-18T10:54:40.072Z,15250.83
2023-04-18T10:56:40.046Z,14800.83
2023-04-18T10:57:40.042Z,14788.33
2023-04-18T10:58:40.030Z,14564.17
2023-04-18T10:59:40.049Z,17877.5
2023-04-18T11:01:40.100Z,19116.67
2023-04-18T11:02:40.124Z,16110
2023-04-18T11:03:40.101Z,14401.67
2023-04-18T11:04:40.037Z,15028.33
2023-04-18T11:05:40.046Z,14494.17
2023-04-18T11:06:40.062Z,12860.83
2023-04-18T11:08:40.037Z,13110.83
2023-04-18T11:09:40.046Z,15032.5
2023-04-18T11:10:42.837Z,15306.67
2023-04-18T11:11:45.446Z,15287.5
2023-04-18T11:13:40.049Z,15625
2023-04-18T11:14:40.071Z,16813.33
2023-04-18T11:15:40.096Z,17800.83
2023-04-18T11:17:40.193Z,20290
2023-04-18T11:19:40.064Z,22501.67
2023-04-18T11:20:40.100Z,30660
2023-04-18T11:22:40.054Z,29918.33
2023-04-18T11:24:40.055Z,54515.39
2023-04-18T11:25:40.048Z,48637.81
2023-04-18T11:26:40.054Z,18113.33
2023-04-18T11:27:40.075Z,17007.5
2023-04-18T11:29:40.058Z,33445
2023-04-18T11:30:40.260Z,28460
2023-04-18T11:31:42.574Z,33054.16
2023-04-18T11:32:45.953Z,52302.5
2023-04-18T11:34:40.059Z,26255
2023-04-18T11:35:40.051Z,27999.17
2023-04-18T11:37:40.040Z,29471.67
2023-04-18T11:38:40.041Z,43292.5
2023-04-18T11:39:40.039Z,29630
2023-04-18T11:40:40.062Z,26296.67
2023-04-18T11:42:40.051Z,53388.33
2023-04-18T11:43:40.041Z,25542.5
2023-04-18T11:44:40.097Z,32148.33
2023-04-18T11:45:40.071Z,44960.83
2023-04-18T11:46:40.075Z,53041.95
2023-04-18T11:47:40.065Z,51670
2023-04-18T11:48:40.094Z,42348.75
2023-04-18T11:49:40.043Z,15658.33
2023-04-18T11:50:40.059Z,35030.83
2023-04-18T11:51:40.818Z,44505
2023-04-18T11:52:42.970Z,46783.44
2023-04-18T11:53:45.519Z,38645
2023-04-18T11:55:40.060Z,17893.33
2023-04-18T11:56:40.054Z,42381.09
2023-04-18T11:57:40.061Z,22046.67
2023-04-18T11:58:40.056Z,29725
2023-04-18T12:00:40.048Z,21126.67
2023-04-18T12:02:40.196Z,19549.17
2023-04-18T12:03:40.189Z,16154.17
2023-04-18T12:04:40.253Z,15063.33
2023-04-18T12:05:40.139Z,17361.67
2023-04-18T12:06:40.040Z,21238.33
2023-04-18T12:07:40.420Z,22075.83
2023-04-18T12:09:40.069Z,22480
2023-04-18T12:10:40.060Z,21070
2023-04-18T12:11:40.055Z,50413.12
2023-04-18T12:12:40.446Z,11026.67
2023-04-18T12:13:42.731Z,23653.33
2023-04-18T12:14:46.155Z,24016.67
2023-04-18T12:16:40.040Z,23360
2023-04-18T12:17:40.053Z,19210
2023-04-18T12:18:40.037Z,20739.17
2023-04-18T12:19:40.053Z,26390.83
2023-04-18T12:20:40.069Z,56932.18
2023-04-18T12:21:40.045Z,51010.83
2023-04-18T12:22:40.087Z,18552.5
2023-04-18T12:23:40.052Z,21387.5
2023-04-18T12:24:40.041Z,23913.33
2023-04-18T12:25:40.041Z,26452.5
2023-04-18T12:26:40.043Z,25741.67
2023-04-18T12:27:40.044Z,16296.67
2023-04-18T12:28:40.073Z,14545
2023-04-18T12:29:40.058Z,12850.83
2023-04-18T12:30:40.037Z,11598.33
2023-04-18T12:31:40.134Z,16815.83
2023-04-18T12:32:40.112Z,26934.17
2023-04-18T12:33:40.588Z,20970.83
2023-04-18T12:34:42.891Z,15875
2023-04-18T12:35:46.091Z,15730.83
2023-04-18T12:36:40.038Z,19371.67
2023-04-18T12:37:40.038Z,16724.17
2023-04-18T12:38:40.080Z,13077.5
2023-04-18T12:40:40.057Z,11840.83
2023-04-18T12:41:40.050Z,11235
2023-04-18T12:42:40.057Z,9875
2023-04-18T12:43:40.057Z,10655
2023-04-18T12:44:40.069Z,13130.83
2023-04-18T12:46:40.057Z,15449.17
2023-04-18T12:47:40.107Z,11434.17
2023-04-18T12:48:40.073Z,13274.17
2023-04-18T12:50:40.038Z,55649.21
2023-04-18T12:51:40.039Z,45241.72
2023-04-18T12:52:40.071Z,12890
2023-04-18T12:53:40.039Z,10896.67
2023-04-18T12:54:40.560Z,12107.5
2023-04-18T12:55:42.925Z,16385.83
2023-04-18T12:56:46.392Z,21405.83
2023-04-18T12:58:40.042Z,15656.67
2023-04-18T12:59:40.027Z,35191.66
2023-04-18T13:00:40.054Z,47489.61
2023-04-18T13:01:40.053Z,40325.47
2023-04-18T13:02:40.265Z,21799.17
2023-04-18T13:03:40.157Z,47094.16
2023-04-18T13:04:40.119Z,18876.67
2023-04-18T13:05:40.157Z,51564.92
2023-04-18T13:07:40.040Z,49180.46
2023-04-18T13:08:40.278Z,50772.5
2023-04-18T13:09:40.056Z,37219.16
2023-04-18T13:10:40.058Z,50188.51
2023-04-18T13:12:40.046Z,47308.33
2023-04-18T13:13:40.044Z,52739.16
2023-04-18T13:14:40.051Z,19628.33
2023-04-18T13:15:40.665Z,28766.67
2023-04-18T13:16:44.125Z,21611.67
2023-04-18T13:17:45.925Z,18224.17
2023-04-18T13:19:40.051Z,14784.17
2023-04-18T13:20:40.426Z,13989.17
2023-04-18T13:22:40.041Z,18836.67
2023-04-18T13:23:40.045Z,20568.33
2023-04-18T13:24:40.056Z,23697.5
2023-04-18T13:25:40.050Z,16790.83
2023-04-18T13:26:40.217Z,13305
2023-04-18T13:28:40.052Z,14124.17
2023-04-18T13:29:40.077Z,14617.5
2023-04-18T13:31:40.054Z,13181.67
2023-04-18T13:32:40.073Z,16628.33
2023-04-18T13:33:40.061Z,29248.33
2023-04-18T13:34:40.073Z,42208.59
2023-04-18T13:35:40.091Z,39308.33
2023-04-18T13:36:40.768Z,18970
2023-04-18T13:37:43.235Z,15175
2023-04-18T13:38:46.650Z,43053.33
2023-04-18T13:40:40.044Z,21645.83
2023-04-18T13:41:40.050Z,40330.83
2023-04-18T13:42:40.062Z,28450.83
2023-04-18T13:43:40.046Z,20739.17
2023-04-18T13:44:40.056Z,43625
2023-04-18T13:46:40.038Z,45888.59
2023-04-18T13:47:40.056Z,46848.12
2023-04-18T13:48:40.056Z,47088.91
2023-04-18T13:49:40.062Z,49859.68
2023-04-18T13:50:40.059Z,49178.67
2023-04-18T13:51:40.045Z,40050.55
2023-04-18T13:53:40.045Z,17101.67
2023-04-18T13:54:40.063Z,14982.5
2023-04-18T13:56:40.038Z,16479.17
2023-04-18T13:57:40.035Z,17627.5
2023-04-18T13:58:40.772Z,16535.83
2023-04-18T13:59:43.281Z,13008.33
2023-04-18T14:00:46.176Z,12660
2023-04-18T14:02:40.205Z,25489.17
2023-04-18T14:03:42.253Z,27174.17
2023-04-18T14:04:40.102Z,16797.5
2023-04-18T14:05:40.043Z,18850
2023-04-18T14:06:40.035Z,17510
2023-04-18T14:07:40.044Z,22191.67
2023-04-18T14:08:40.045Z,24895.83
2023-04-18T14:09:40.070Z,39409.16
2023-04-18T14:11:40.040Z,41092.73
2023-04-18T14:12:40.128Z,40823.2
2023-04-18T14:14:40.044Z,28086.67
2023-04-18T14:15:40.160Z,16951.67
2023-04-18T14:17:40.055Z,25346.67
2023-04-18T14:18:40.067Z,22582.5
2023-04-18T14:19:40.986Z,34873.33
2023-04-18T14:20:44.005Z,36695
2023-04-18T14:21:46.814Z,35758.33
2023-04-18T14:23:40.049Z,34408.33
2023-04-18T14:24:40.037Z,33691.66
2023-04-18T14:25:40.058Z,16580
2023-04-18T14:26:40.053Z,27575
2023-04-18T14:27:40.058Z,35306.66
2023-04-18T14:28:40.046Z,37057.5
2023-04-18T14:29:40.068Z,35087.5
2023-04-18T14:30:40.038Z,13651.67
2023-04-18T14:31:40.089Z,12471.67
2023-04-18T14:32:40.053Z,13233.33
2023-04-18T14:33:40.041Z,13020.83
2023-04-18T14:34:40.085Z,12888.33
2023-04-18T14:36:40.049Z,9183.33
2023-04-18T14:38:40.036Z,10500
2023-04-18T14:39:40.077Z,10537.5
2023-04-18T14:40:41.072Z,10292.5
2023-04-18T14:41:44.119Z,15088.33
2023-04-18T14:42:46.889Z,24256.67
2023-04-18T14:44:40.069Z,24527.5
2023-04-18T14:45:40.038Z,8792.5
2023-04-18T14:46:40.105Z,19328.33
2023-04-18T14:47:40.074Z,18430
2023-04-18T14:49:40.059Z,18515.83
2023-04-18T14:51:40.061Z,21165.83
2023-04-18T14:52:40.068Z,21528.33
2023-04-18T14:54:40.060Z,16065.83
2023-04-18T14:55:40.044Z,15445
2023-04-18T14:56:40.055Z,21559.17
2023-04-18T14:57:40.052Z,17450
2023-04-18T14:58:40.050Z,15682.5
2023-04-18T14:59:40.162Z,23355.83
2023-04-18T15:00:40.147Z,27840.83
2023-04-18T15:01:41.203Z,17346.67
2023-04-18T15:02:44.401Z,14630
2023-04-18T15:03:47.327Z,10799.17
2023-04-18T15:05:40.052Z,23100.83
2023-04-18T15:06:40.123Z,24853.33
2023-04-18T15:08:40.044Z,24494.17
2023-04-18T15:09:40.036Z,24227.5
2023-04-18T15:10:40.044Z,23585
2023-04-18T15:11:40.041Z,21854.17
2023-04-18T15:12:40.043Z,22070
2023-04-18T15:13:40.072Z,21970.83
2023-04-18T15:15:40.099Z,14669.17
2023-04-18T15:16:40.064Z,16407.5
2023-04-18T15:17:40.089Z,18660
2023-04-18T15:18:40.040Z,21320.83
2023-04-18T15:19:40.051Z,24169.17
2023-04-18T15:20:40.036Z,24935.83
2023-04-18T15:21:40.032Z,25275
2023-04-18T15:22:41.275Z,24800
2023-04-18T15:23:44.290Z,22327.5
2023-04-18T15:24:47.128Z,19844.17
2023-04-18T15:26:40.079Z,13030.83
2023-04-18T15:27:40.059Z,10312.5
2023-04-18T15:28:40.074Z,11790
2023-04-18T15:29:40.077Z,10865.83
2023-04-18T15:31:40.063Z,8157.5
2023-04-18T15:32:40.073Z,8445.83
2023-04-18T15:33:40.041Z,8446.67
2023-04-18T15:34:40.099Z,7641.67
2023-04-18T15:36:40.037Z,7103.33
2023-04-18T15:37:40.058Z,7595
2023-04-18T15:38:40.060Z,7969.17
2023-04-18T15:39:40.075Z,9389.17
2023-04-18T15:41:40.042Z,11756.67
2023-04-18T15:42:40.051Z,8225
2023-04-18T15:43:41.295Z,7430
2023-04-18T15:44:44.382Z,7014.17
2023-04-18T15:45:46.818Z,8272.5
2023-04-18T15:46:40.106Z,11080.83
2023-04-18T15:47:40.168Z,10240.83
2023-04-18T15:49:40.051Z,14600
2023-04-18T15:50:40.055Z,14773.33
2023-04-18T15:51:40.032Z,14625
2023-04-18T15:52:40.036Z,14320
2023-04-18T15:53:40.064Z,12304.17
2023-04-18T15:55:40.034Z,11905.83
2023-04-18T15:56:40.043Z,11570